createdAt,value
2018-10-19T00:00:50.194Z,56.20
2018-10-19T00:03:18.492Z,56.10
2018-10-19T00:05:46.771Z,57.40
2018-10-19T00:08:15.048Z,57.90
2018-10-19T00:10:43.319Z,58.00
2018-10-19T00:13:11.567Z,58.40
2018-10-19T00:15:39.847Z,58.00
2018-10-19T00:20:42.803Z,57.60
2018-10-19T00:23:11.110Z,57.40
2018-10-19T00:25:40.318Z,56.80
2018-10-19T00:28:08.577Z,55.90
2018-10-19T00:30:36.838Z,56.00
2018-10-19T00:33:05.967Z,55.50
2018-10-19T00:35:34.978Z,55.80
2018-10-19T00:38:03.219Z,55.70
2018-10-19T00:40:31.506Z,55.70
2018-10-19T00:42:59.808Z,56.00
2018-10-19T00:45:28.034Z,56.60
2018-10-19T00:47:56.312Z,57.10
2018-10-19T00:50:24.611Z,56.70
2018-10-19T00:52:52.865Z,56.90
2018-10-19T00:55:21.120Z,55.80
2018-10-19T00:57:50.182Z,55.70
2018-10-19T01:00:19.306Z,55.70
2018-10-19T01:02:47.523Z,55.70
2018-10-19T01:05:15.870Z,55.70
2018-10-19T01:07:44.117Z,56.40
2018-10-19T01:10:12.379Z,56.90
2018-10-19T01:12:40.655Z,57.20
2018-10-19T01:15:08.991Z,56.60
2018-10-19T01:17:37.210Z,55.60
2018-10-19T01:20:05.491Z,55.60
2018-10-19T01:22:33.753Z,55.50
2018-10-19T01:25:02.787Z,55.50
2018-10-19T01:27:31.932Z,55.50
2018-10-19T01:30:00.147Z,55.50
2018-10-19T01:32:29.192Z,55.50
2018-10-19T01:34:57.464Z,55.50
2018-10-19T01:37:25.914Z,55.20
2018-10-19T01:39:54.183Z,55.50
2018-10-19T01:42:22.454Z,54.90
2018-10-19T01:44:51.483Z,55.10
2018-10-19T01:47:19.763Z,55.10
2018-10-19T01:49:48.015Z,56.00
2018-10-19T01:52:16.286Z,56.60
2018-10-19T01:54:44.543Z,57.00
2018-10-19T01:57:13.621Z,57.50
2018-10-19T01:59:41.833Z,57.50
2018-10-19T02:02:10.110Z,56.40
2018-10-19T02:04:38.362Z,56.40
2018-10-19T02:07:07.402Z,56.60
2018-10-19T02:09:36.468Z,57.00
2018-10-19T02:12:05.508Z,56.10
2018-10-19T02:14:33.763Z,56.10
2018-10-19T02:17:02.071Z,55.70
2018-10-19T02:19:30.320Z,55.90
2018-10-19T02:21:58.589Z,56.00
2018-10-19T02:24:26.890Z,56.40
2018-10-19T02:26:55.220Z,56.70
2018-10-19T02:29:23.418Z,56.60
2018-10-19T02:31:51.695Z,57.50
2018-10-19T02:34:20.744Z,56.80
2018-10-19T02:36:49.755Z,56.90
2018-10-19T02:39:18.115Z,56.90
2018-10-19T02:41:46.295Z,56.90
2018-10-19T02:44:14.583Z,56.00
2018-10-19T02:46:42.872Z,55.40
2018-10-19T02:49:11.134Z,55.10
2018-10-19T02:51:39.398Z,54.60
2018-10-19T02:54:08.668Z,54.70
2018-10-19T02:56:37.754Z,53.90
2018-10-19T02:59:06.057Z,54.40
2018-10-19T03:01:34.300Z,55.00
2018-10-19T03:04:02.575Z,55.20
2018-10-19T03:06:30.827Z,55.50
2018-10-19T03:08:59.105Z,56.10
2018-10-19T03:11:28.195Z,55.50
2018-10-19T03:13:56.466Z,55.30
2018-10-19T03:16:24.743Z,55.50
2018-10-19T03:18:53.003Z,55.50
2018-10-19T03:21:21.283Z,55.00
2018-10-19T03:23:49.589Z,55.00
2018-10-19T03:26:17.848Z,55.00
2018-10-19T03:28:46.107Z,54.90
2018-10-19T03:31:14.436Z,54.70
2018-10-19T03:33:42.671Z,55.10
2018-10-19T03:36:10.927Z,55.80
2018-10-19T03:38:39.207Z,56.00
2018-10-19T03:41:07.505Z,56.70
2018-10-19T03:43:35.746Z,57.40
2018-10-19T03:46:04.011Z,58.00
2018-10-19T03:48:32.298Z,56.90
2018-10-19T03:51:00.605Z,55.80
2018-10-19T03:53:29.991Z,54.90
2018-10-19T03:55:58.279Z,54.90
2018-10-19T03:58:26.547Z,54.50
2018-10-19T04:00:54.827Z,54.50
2018-10-19T04:03:23.129Z,54.90
2018-10-19T04:05:51.382Z,54.80
2018-10-19T04:08:19.650Z,54.50
2018-10-19T04:10:47.910Z,54.60
2018-10-19T04:13:16.182Z,54.30
2018-10-19T04:15:44.518Z,54.70
2018-10-19T04:18:12.759Z,55.10
2018-10-19T04:20:41.787Z,55.50
2018-10-19T04:23:10.878Z,55.50
2018-10-19T04:25:39.071Z,55.50
2018-10-19T04:28:07.346Z,55.20
2018-10-19T04:30:35.914Z,55.20
2018-10-19T04:33:05.094Z,55.20
2018-10-19T04:35:34.020Z,55.10
2018-10-19T04:38:02.277Z,55.70
2018-10-19T04:40:31.400Z,56.20
2018-10-19T04:43:00.428Z,56.70
2018-10-19T04:45:28.692Z,56.60
2018-10-19T04:47:56.972Z,56.20
2018-10-19T04:50:25.222Z,55.50
2018-10-19T04:52:53.575Z,54.90
2018-10-19T04:55:21.759Z,55.00
2018-10-19T04:57:50.007Z,55.30
2018-10-19T05:00:19.043Z,55.00
2018-10-19T05:02:47.405Z,54.80
2018-10-19T05:05:15.698Z,54.60
2018-10-19T05:07:43.847Z,55.40
2018-10-19T05:10:12.106Z,54.70
2018-10-19T05:12:41.251Z,55.30
2018-10-19T05:15:09.437Z,55.20
2018-10-19T05:17:37.714Z,55.70
2018-10-19T05:20:05.988Z,56.30
2018-10-19T05:22:34.271Z,56.10
2018-10-19T05:25:02.522Z,56.10
2018-10-19T05:27:30.803Z,56.30
2018-10-19T05:29:59.085Z,56.60
2018-10-19T05:32:27.332Z,56.50
2018-10-19T05:34:55.607Z,55.70
2018-10-19T05:37:24.319Z,54.80
2018-10-19T05:39:53.355Z,55.20
2018-10-19T05:42:21.664Z,55.20
2018-10-19T05:44:51.439Z,55.90
2018-10-19T05:47:19.987Z,55.80
2018-10-19T05:49:48.242Z,56.30
2018-10-19T05:52:16.667Z,56.20
2018-10-19T05:54:44.806Z,56.40
2018-10-19T05:57:13.086Z,56.20
2018-10-19T05:59:41.347Z,56.10
2018-10-19T06:02:09.643Z,56.70
2018-10-19T06:04:37.870Z,56.90
2018-10-19T06:07:06.189Z,56.70
2018-10-19T06:09:34.575Z,56.80
2018-10-19T06:12:02.871Z,56.80
2018-10-19T06:14:31.931Z,57.30
2018-10-19T06:17:00.212Z,57.20
2018-10-19T06:19:28.476Z,57.40
2018-10-19T06:21:56.757Z,57.20
2018-10-19T06:24:25.036Z,57.40
2018-10-19T06:26:53.308Z,57.60
2018-10-19T06:29:21.590Z,57.50
2018-10-19T06:31:49.839Z,58.40
2018-10-19T06:34:18.118Z,58.50
2018-10-19T06:36:46.371Z,58.90
2018-10-19T06:39:14.627Z,59.20
2018-10-19T06:41:43.670Z,59.80
2018-10-19T06:44:11.972Z,59.70
2018-10-19T06:46:40.295Z,59.80
2018-10-19T06:49:08.525Z,59.80
2018-10-19T06:51:36.739Z,59.80
2018-10-19T06:54:05.018Z,60.10
2018-10-19T06:56:33.258Z,59.80
2018-10-19T06:59:01.671Z,60.00
2018-10-19T07:01:29.835Z,59.90
2018-10-19T07:03:58.113Z,60.30
2018-10-19T07:06:26.379Z,60.40
2018-10-19T07:08:55.426Z,60.10
2018-10-19T07:11:23.691Z,60.00
2018-10-19T07:13:51.990Z,60.10
2018-10-19T07:16:20.259Z,60.60
2018-10-19T07:18:48.560Z,61.00
2018-10-19T07:21:16.842Z,61.80
2018-10-19T07:23:45.863Z,61.10
2018-10-19T07:26:14.182Z,61.10
2018-10-19T07:28:42.399Z,61.20
2018-10-19T07:31:11.530Z,61.00
2018-10-19T07:33:40.578Z,60.30
2018-10-19T07:36:09.652Z,60.50
2018-10-19T07:38:37.939Z,60.40
2018-10-19T07:41:07.757Z,60.60
2018-10-19T07:43:36.002Z,60.60
2018-10-19T07:46:04.266Z,60.60
2018-10-19T07:48:32.639Z,60.70
2018-10-19T07:51:00.823Z,60.80
2018-10-19T07:53:29.081Z,60.70
2018-10-19T07:55:57.414Z,60.80
2018-10-19T07:58:26.366Z,60.20
2018-10-19T08:00:54.645Z,60.20
2018-10-19T08:03:22.937Z,60.60
2018-10-19T08:05:51.190Z,60.10
2018-10-19T08:08:19.512Z,60.70
2018-10-19T08:10:47.798Z,60.30
2018-10-19T08:13:16.078Z,60.20
2018-10-19T08:15:44.331Z,60.30
2018-10-19T08:18:13.648Z,60.00
2018-10-19T08:20:41.916Z,60.00
2018-10-19T08:23:10.956Z,58.90
2018-10-19T08:25:39.203Z,58.90
2018-10-19T08:28:07.471Z,59.30
2018-10-19T08:30:35.730Z,60.10
2018-10-19T08:33:04.018Z,59.00
2018-10-19T08:35:32.344Z,59.30
2018-10-19T08:38:00.697Z,59.00
2018-10-19T08:40:29.020Z,58.40
2018-10-19T08:42:58.080Z,56.50
2018-10-19T08:45:26.308Z,56.40
2018-10-19T08:47:54.587Z,56.80
2018-10-19T08:50:22.883Z,57.10
2018-10-19T08:52:51.136Z,56.40
2018-10-19T08:55:19.418Z,55.80
2018-10-19T08:57:47.748Z,55.90
2018-10-19T09:00:16.418Z,55.10
2018-10-19T09:02:45.402Z,54.40
2018-10-19T09:05:13.740Z,54.30
2018-10-19T09:07:41.957Z,53.60
2018-10-19T09:10:10.217Z,54.40
2018-10-19T09:12:38.750Z,54.40
2018-10-19T09:15:07.008Z,53.00
2018-10-19T09:17:35.204Z,53.20
2018-10-19T09:20:03.566Z,53.20
2018-10-19T09:22:31.818Z,53.30
2018-10-19T09:25:00.087Z,52.90
2018-10-19T09:27:28.357Z,52.80
2018-10-19T09:29:56.630Z,53.30
2018-10-19T09:32:24.904Z,54.10
2018-10-19T09:34:53.393Z,52.30
2018-10-19T09:37:21.637Z,51.90
2018-10-19T09:39:49.895Z,52.40
2018-10-19T09:42:18.490Z,51.80
2018-10-19T09:44:46.748Z,51.30
2018-10-19T09:47:15.062Z,51.50
2018-10-19T09:49:43.341Z,51.50
2018-10-19T09:52:11.594Z,51.30
2018-10-19T09:54:39.859Z,50.90
2018-10-19T09:57:08.145Z,50.60
2018-10-19T09:59:36.436Z,50.70
2018-10-19T10:02:04.730Z,50.00
2018-10-19T10:04:33.216Z,49.70
2018-10-19T10:07:01.534Z,49.10
2018-10-19T10:09:29.738Z,49.30
2018-10-19T10:11:58.047Z,50.40
2018-10-19T10:14:26.439Z,49.40
2018-10-19T10:16:54.716Z,50.20
2018-10-19T10:19:22.962Z,50.00
2018-10-19T10:21:51.227Z,49.10
2018-10-19T10:24:19.485Z,48.80
2018-10-19T10:26:47.756Z,48.70
2018-10-19T10:29:16.029Z,48.80
2018-10-19T10:31:44.313Z,48.50
2018-10-19T10:34:12.600Z,47.70
2018-10-19T10:36:40.835Z,47.90
2018-10-19T10:39:09.231Z,47.10
2018-10-19T10:41:38.172Z,46.90
2018-10-19T10:44:06.447Z,46.90
2018-10-19T10:46:34.767Z,45.90
2018-10-19T10:49:03.064Z,47.30
2018-10-19T10:51:32.063Z,45.50
2018-10-19T10:54:01.095Z,45.50
2018-10-19T10:56:30.115Z,45.70
2018-10-19T10:58:58.423Z,45.70
2018-10-19T11:01:26.742Z,45.30
2018-10-19T11:03:55.007Z,45.10
2018-10-19T11:06:23.268Z,45.80
2018-10-19T11:08:51.537Z,45.40
2018-10-19T11:11:19.798Z,44.80
2018-10-19T11:13:48.100Z,44.70
2018-10-19T11:16:16.355Z,44.80
2018-10-19T11:18:44.628Z,45.50
2018-10-19T11:21:12.898Z,44.80
2018-10-19T11:23:41.153Z,44.70
2018-10-19T11:26:09.437Z,44.20
2018-10-19T11:28:37.699Z,44.20
2018-10-19T11:31:06.058Z,45.00
2018-10-19T11:33:34.322Z,44.20
2018-10-19T11:36:03.361Z,43.60
2018-10-19T11:38:31.624Z,43.50
2018-10-19T11:40:59.895Z,44.30
2018-10-19T11:43:28.151Z,43.40
2018-10-19T11:45:57.238Z,43.20
2018-10-19T11:48:25.476Z,43.20
2018-10-19T11:50:53.781Z,42.60
2018-10-19T11:53:22.034Z,42.60
2018-10-19T11:55:50.322Z,43.20
2018-10-19T11:58:18.716Z,42.40
2018-10-19T12:00:46.897Z,42.30
2018-10-19T12:03:15.983Z,41.50
2018-10-19T12:05:44.240Z,41.50
2018-10-19T12:08:12.508Z,42.30
2018-10-19T12:10:41.686Z,42.10
2018-10-19T12:13:09.937Z,41.80
2018-10-19T12:15:38.181Z,42.10
2018-10-19T12:18:07.302Z,42.10
2018-10-19T12:20:35.580Z,42.10
2018-10-19T12:23:04.602Z,42.10
2018-10-19T12:25:32.877Z,42.00
2018-10-19T12:28:01.153Z,44.40
2018-10-19T12:30:29.423Z,42.60
2018-10-19T12:32:57.762Z,42.70
2018-10-19T12:35:26.093Z,43.00
2018-10-19T12:40:29.065Z,42.70
2018-10-19T12:42:57.381Z,42.80
2018-10-19T12:45:25.601Z,41.30
2018-10-19T12:47:53.901Z,41.70
2018-10-19T12:50:22.158Z,42.90
2018-10-19T12:52:50.483Z,41.50
2018-10-19T12:55:18.830Z,41.40
2018-10-19T12:57:47.008Z,42.50
2018-10-19T13:00:15.275Z,42.80
2018-10-19T13:02:43.827Z,42.90
2018-10-19T13:05:12.102Z,42.70
2018-10-19T13:07:40.366Z,43.50
2018-10-19T13:10:08.642Z,44.50
2018-10-19T13:12:36.899Z,43.50
2018-10-19T13:15:05.988Z,42.10
2018-10-19T13:17:34.230Z,42.60
2018-10-19T13:20:03.737Z,40.80
2018-10-19T13:22:32.009Z,40.80
2018-10-19T13:25:00.280Z,40.70
2018-10-19T13:27:28.765Z,40.90
2018-10-19T13:29:57.035Z,42.10
2018-10-19T13:32:25.284Z,41.10
2018-10-19T13:34:53.588Z,40.50
2018-10-19T13:37:22.383Z,40.90
2018-10-19T13:39:50.654Z,41.50
2018-10-19T13:42:20.174Z,41.00
2018-10-19T13:44:49.350Z,39.60
2018-10-19T13:47:17.622Z,39.50
2018-10-19T13:49:45.864Z,39.70
2018-10-19T13:52:14.206Z,40.30
2018-10-19T13:54:42.417Z,40.10
2018-10-19T13:57:10.764Z,41.10
2018-10-19T13:59:39.031Z,40.60
2018-10-19T14:02:07.320Z,40.60
2018-10-19T14:04:35.584Z,41.10
2018-10-19T14:07:04.134Z,40.10
2018-10-19T14:09:32.419Z,39.90
2018-10-19T14:12:00.687Z,41.10
2018-10-19T14:14:28.970Z,39.60
2018-10-19T14:16:58.764Z,40.90
2018-10-19T14:19:27.025Z,40.90
2018-10-19T14:21:55.287Z,39.30
2018-10-19T14:24:23.726Z,40.10
2018-10-19T14:26:52.036Z,41.50
2018-10-19T14:29:20.271Z,40.00
2018-10-19T14:31:48.558Z,39.30
2018-10-19T14:34:16.851Z,39.30
2018-10-19T14:36:45.947Z,39.00
2018-10-19T14:39:15.091Z,40.50
2018-10-19T14:41:43.280Z,40.40
2018-10-19T14:44:11.550Z,40.80
2018-10-19T14:46:39.827Z,41.10
2018-10-19T14:49:08.732Z,40.20
2018-10-19T14:51:37.843Z,40.70
2018-10-19T14:54:06.123Z,40.60
2018-10-19T14:56:34.389Z,41.60
2018-10-19T14:59:03.462Z,41.50
2018-10-19T15:01:31.697Z,41.50
2018-10-19T15:03:59.957Z,40.80
2018-10-19T15:06:28.247Z,41.80
2018-10-19T15:08:56.565Z,41.30
2018-10-19T15:11:25.047Z,41.70
2018-10-19T15:13:53.110Z,41.50
2018-10-19T15:16:21.340Z,42.80
2018-10-19T15:18:49.934Z,43.20
2018-10-19T15:21:18.198Z,44.20
2018-10-19T15:23:46.462Z,44.10
2018-10-19T15:26:14.745Z,44.10
2018-10-19T15:28:43.063Z,44.00
2018-10-19T15:33:45.822Z,43.90
2018-10-19T15:36:14.129Z,45.10
2018-10-19T15:38:42.382Z,43.90
2018-10-19T15:41:10.662Z,43.90
2018-10-19T15:43:38.989Z,44.70
2018-10-19T15:46:07.219Z,44.70
2018-10-19T15:48:36.280Z,46.00
2018-10-19T15:51:04.571Z,46.00
2018-10-19T15:53:32.845Z,46.10
2018-10-19T15:56:01.099Z,46.40
2018-10-19T15:58:30.130Z,46.40
2018-10-19T16:00:58.398Z,46.40
2018-10-19T16:03:26.687Z,47.10
2018-10-19T16:05:54.998Z,47.50
2018-10-19T16:08:23.253Z,47.10
2018-10-19T16:10:51.546Z,47.20
2018-10-19T16:13:19.804Z,46.60
2018-10-19T16:15:48.355Z,47.30
2018-10-19T16:18:16.659Z,47.70
2018-10-19T16:20:44.890Z,47.90
2018-10-19T16:23:13.186Z,48.50
2018-10-19T16:25:41.458Z,48.90
2018-10-19T16:28:09.765Z,48.80
2018-10-19T16:30:38.857Z,49.50
2018-10-19T16:33:07.937Z,49.30
2018-10-19T16:35:36.172Z,49.30
2018-10-19T16:38:04.459Z,49.60
2018-10-19T16:40:32.748Z,50.10
2018-10-19T16:43:01.028Z,50.20
2018-10-19T16:45:29.320Z,50.20
2018-10-19T16:47:57.623Z,50.40
2018-10-19T16:50:25.909Z,50.80
2018-10-19T16:52:55.000Z,50.80
2018-10-19T16:55:23.278Z,50.80
2018-10-19T16:57:52.402Z,51.10
2018-10-19T17:00:20.667Z,50.90
2018-10-19T17:02:49.762Z,51.10
2018-10-19T17:05:18.845Z,51.30
2018-10-19T17:07:47.086Z,51.20
2018-10-19T17:10:15.579Z,51.50
2018-10-19T17:12:43.957Z,51.70
2018-10-19T17:15:12.289Z,52.40
2018-10-19T17:17:40.638Z,50.60
2018-10-19T17:20:09.668Z,51.80
2018-10-19T17:22:37.959Z,51.80
2018-10-19T17:25:06.291Z,52.00
2018-10-19T17:27:34.522Z,52.00
2018-10-19T17:30:02.967Z,51.90
2018-10-19T17:32:31.199Z,52.40
2018-10-19T17:35:00.245Z,52.50
2018-10-19T17:37:28.591Z,52.50
2018-10-19T17:39:56.821Z,52.60
2018-10-19T17:42:25.115Z,52.70
2018-10-19T17:44:54.195Z,52.60
2018-10-19T17:47:22.509Z,52.50
2018-10-19T17:49:50.867Z,52.50
2018-10-19T17:52:19.923Z,52.30
2018-10-19T17:54:48.207Z,52.30
2018-10-19T17:57:16.559Z,51.50
2018-10-19T17:59:45.655Z,52.10
2018-10-19T18:02:13.950Z,52.10
2018-10-19T18:04:42.270Z,52.20
2018-10-19T18:07:11.326Z,52.90
2018-10-19T18:09:39.811Z,52.90
2018-10-19T18:12:08.786Z,52.00
2018-10-19T18:14:37.116Z,52.00
2018-10-19T18:17:05.432Z,52.30
2018-10-19T18:19:33.811Z,52.40
2018-10-19T18:22:02.230Z,52.50
2018-10-19T18:24:30.359Z,52.60
2018-10-19T18:26:58.773Z,52.80
2018-10-19T18:29:27.038Z,52.80
2018-10-19T18:31:55.436Z,52.80
2018-10-19T18:34:23.820Z,52.30
2018-10-19T18:36:52.863Z,52.40
2018-10-19T18:39:21.174Z,52.30
2018-10-19T18:41:49.463Z,52.60
2018-10-19T18:44:18.612Z,52.20
2018-10-19T18:46:46.951Z,52.00
2018-10-19T18:49:16.110Z,52.30
2018-10-19T18:51:44.396Z,52.30
2018-10-19T18:54:13.429Z,52.80
2018-10-19T18:56:41.870Z,52.80
2018-10-19T18:59:10.359Z,52.90
2018-10-19T19:01:38.585Z,53.60
2018-10-19T19:04:06.910Z,53.40
2018-10-19T19:06:36.292Z,53.10
2018-10-19T19:09:04.845Z,53.10
2018-10-19T19:11:33.130Z,53.00
2018-10-19T19:14:01.435Z,53.40
2018-10-19T19:16:29.754Z,53.60
2018-10-19T19:18:58.102Z,53.10
2018-10-19T19:21:27.224Z,53.70
2018-10-19T19:23:56.632Z,53.90
2018-10-19T19:26:25.262Z,53.30
2018-10-19T19:28:55.171Z,53.10
2018-10-19T19:31:23.496Z,52.60
2018-10-19T19:36:47.731Z,52.80
2018-10-19T19:39:16.106Z,54.10
2018-10-19T19:42:02.144Z,53.10
2018-10-19T19:44:31.387Z,54.20
2018-10-19T19:46:59.751Z,54.10
2018-10-19T19:49:33.812Z,54.40
2018-10-19T19:52:02.768Z,54.50
2018-10-19T19:54:31.025Z,54.40
2018-10-19T19:56:59.269Z,54.30
2018-10-19T19:59:27.597Z,53.30
2018-10-19T20:01:55.917Z,53.90
2018-10-19T20:04:24.164Z,53.90
2018-10-19T20:06:52.410Z,53.60
2018-10-19T20:09:20.690Z,53.30
2018-10-19T20:11:48.991Z,52.60
2018-10-19T20:14:17.299Z,53.20
2018-10-19T20:16:45.566Z,53.60
2018-10-19T20:19:14.618Z,54.40
2018-10-19T20:21:42.890Z,54.40
2018-10-19T20:24:11.156Z,54.50
2018-10-19T20:26:39.450Z,54.20
2018-10-19T20:29:07.740Z,54.40
2018-10-19T20:31:36.001Z,53.50
2018-10-19T20:34:04.291Z,53.00
2018-10-19T20:36:32.577Z,53.50
2018-10-19T20:39:00.836Z,53.80
2018-10-19T20:44:03.797Z,53.90
2018-10-19T20:46:32.059Z,54.80
2018-10-19T20:49:00.653Z,54.10
2018-10-19T20:51:29.674Z,54.00
2018-10-19T20:53:57.932Z,54.00
2018-10-19T20:56:26.216Z,54.10
2018-10-19T20:58:54.494Z,54.60
2018-10-19T21:01:22.762Z,54.40
2018-10-19T21:03:51.028Z,54.50
2018-10-19T21:06:19.319Z,54.60
2018-10-19T21:08:47.595Z,55.00
2018-10-19T21:11:15.903Z,53.70
2018-10-19T21:13:44.124Z,53.80
2018-10-19T21:16:12.431Z,53.60
2018-10-19T21:18:40.771Z,53.50
2018-10-19T21:21:09.212Z,54.30
2018-10-19T21:23:37.567Z,53.50
2018-10-19T21:26:05.848Z,53.90
2018-10-19T21:28:34.194Z,53.60
2018-10-19T21:31:02.459Z,54.70
2018-10-19T21:33:30.895Z,54.20
2018-10-19T21:35:59.163Z,53.70
2018-10-19T21:38:28.249Z,53.20
2018-10-19T21:40:56.594Z,53.20
2018-10-19T21:43:24.868Z,53.50
2018-10-19T21:45:53.131Z,53.00
2018-10-19T21:48:21.468Z,52.30
2018-10-19T21:50:49.755Z,52.30
2018-10-19T21:53:18.803Z,52.80
2018-10-19T21:55:47.074Z,52.80
2018-10-19T21:58:15.382Z,52.50
2018-10-19T22:00:43.643Z,53.00
2018-10-19T22:03:11.923Z,53.00
2018-10-19T22:05:40.192Z,52.20
2018-10-19T22:08:08.479Z,52.00
2018-10-19T22:10:36.769Z,52.50
2018-10-19T22:13:05.860Z,52.90
2018-10-19T22:15:34.078Z,52.90
2018-10-19T22:18:02.378Z,52.50
2018-10-19T22:20:30.630Z,53.10
2018-10-19T22:22:58.992Z,52.70
2018-10-19T22:25:27.252Z,52.50
2018-10-19T22:27:55.510Z,53.50
2018-10-19T22:30:24.549Z,54.10
2018-10-19T22:32:52.819Z,54.00
2018-10-19T22:35:21.106Z,54.00
2018-10-19T22:37:49.396Z,54.60
2018-10-19T22:40:18.520Z,53.90
2018-10-19T22:42:47.584Z,54.20
2018-10-19T22:45:15.864Z,54.20
2018-10-19T22:47:44.132Z,54.60
2018-10-19T22:50:12.427Z,54.40
2018-10-19T22:52:40.713Z,54.00
2018-10-19T22:55:09.004Z,54.00
2018-10-19T22:57:37.220Z,54.00
2018-10-19T23:00:06.310Z,53.70
2018-10-19T23:02:34.580Z,53.70
2018-10-19T23:05:02.851Z,53.90
2018-10-19T23:07:31.104Z,53.80
2018-10-19T23:10:00.134Z,54.20
2018-10-19T23:12:28.396Z,53.80
2018-10-19T23:14:56.862Z,53.70
2018-10-19T23:17:25.129Z,53.20
2018-10-19T23:19:53.384Z,53.10
2018-10-19T23:22:22.430Z,53.60
2018-10-19T23:24:50.712Z,53.60
2018-10-19T23:27:18.979Z,54.10
2018-10-19T23:29:47.246Z,53.90
2018-10-19T23:32:15.608Z,54.20
2018-10-19T23:34:44.617Z,54.00
2018-10-19T23:37:12.964Z,54.50
2018-10-19T23:39:41.202Z,53.40
2018-10-19T23:42:09.500Z,54.00
2018-10-19T23:44:38.546Z,53.40
2018-10-19T23:47:06.871Z,54.10
2018-10-19T23:49:35.093Z,53.20
2018-10-19T23:52:03.351Z,53.60
2018-10-19T23:54:31.621Z,54.20
2018-10-19T23:56:59.870Z,54.20
2018-10-19T23:59:28.922Z,54.90
